Carat — 9HA4131 — position and weather

sailwx.info

Track history (hours):
 
Tides and Currents Weather Stations Pressure Air Temp Water Temp Dewpoint Dewpoint Depression Visibility Wind Speed Wind Dir Waves Ship Positions

Carat

Last reported at 2018-Jun-22 14:22 UTC. Time now 2018-Jun-22 15:26 UTC.
Position N 35°50' E 014°52'.

Length 141 m; draft 6 m.

Type: Cargo ship. MMSI: 249163000.

Date/timePositionNaut miles runAvg speedWind from/ knotsBaromVisibWave heightAir tempDewpointWater temp
2018-Jun-22 14:22N 35°50' E 014°52'0 0.0
2018-Jun-22 09:43N 35°50' E 014°52'0 0.0
2018-Jun-22 08:43N 35°50' E 014°52'0 0.0
2018-Jun-22 08:22N 35°50' E 014°52'0 0.1
2018-Jun-22 07:55N 35°50' E 014°52'0 0.0
2018-Jun-22 06:31N 35°50' E 014°52'0 0.0
2018-Jun-22 06:28N 35°50' E 014°52'0 0.0
2018-Jun-22 05:49N 35°50' E 014°52'0 0.0
2018-Jun-22 05:19N 35°50' E 014°52'0 0.0
2018-Jun-22 03:22N 35°50' E 014°52'0 0.0
2018-Jun-22 02:55N 35°50' E 014°52'0 0.0
2018-Jun-21 23:25N 35°50' E 014°52'0 0.0
2018-Jun-21 22:58N 35°50' E 014°52'0 0.1
2018-Jun-21 22:19N 35°50' E 014°52'16 4.1
2018-Jun-21 18:27N 35°49' E 014°33'0 0.0
2018-Jun-21 18:00N 35°49' E 014°33'0 0.0
2018-Jun-21 17:30N 35°49' E 014°33'6 0.6
2018-Jun-21 08:08N 35°49' E 014°40'0 1.4
2018-Jun-21 08:00N 35°49' E 014°40'0 0.5
2018-Jun-21 07:13N 35°49' E 014°40'0 0.8
2018-Jun-21 06:59N 35°49' E 014°40'1 2.4
2018-Jun-21 06:30N 35°49' E 014°42'6 7.4
2018-Jun-21 05:44N 35°50' E 014°49'1 2.0
2018-Jun-21 05:10N 35°50' E 014°50'  
Track history (hours):
 
Tides and Currents Weather Stations Pressure Air Temp Water Temp Dewpoint Dewpoint Depression Visibility Wind Speed Wind Dir Waves Ship Positions

Carat

Last reported at 2018-Jun-22 14:22 UTC. Time now 2018-Jun-22 15:26 UTC.
Position N 35°50' E 014°52'.

Length 141 m; draft 6 m.

Type: Cargo ship. MMSI: 249163000.

Date/timePositionNaut miles runAvg speedWind from/ knotsBaromVisibWave heightAir tempDewpointWater temp
2018-Jun-22 14:22N 35°50' E 014°52'0 0.0
2018-Jun-22 09:43N 35°50' E 014°52'0 0.0
2018-Jun-22 08:43N 35°50' E 014°52'0 0.0
2018-Jun-22 08:22N 35°50' E 014°52'0 0.1
2018-Jun-22 07:55N 35°50' E 014°52'0 0.0
2018-Jun-22 06:31N 35°50' E 014°52'0 0.0
2018-Jun-22 06:28N 35°50' E 014°52'0 0.0
2018-Jun-22 05:49N 35°50' E 014°52'0 0.0
2018-Jun-22 05:19N 35°50' E 014°52'0 0.0
2018-Jun-22 03:22N 35°50' E 014°52'0 0.0
2018-Jun-22 02:55N 35°50' E 014°52'0 0.0
2018-Jun-21 23:25N 35°50' E 014°52'0 0.0
2018-Jun-21 22:58N 35°50' E 014°52'0 0.1
2018-Jun-21 22:19N 35°50' E 014°52'16 4.1
2018-Jun-21 18:27N 35°49' E 014°33'0 0.0
2018-Jun-21 18:00N 35°49' E 014°33'0 0.0
2018-Jun-21 17:30N 35°49' E 014°33'6 0.6
2018-Jun-21 08:08N 35°49' E 014°40'0 1.4
2018-Jun-21 08:00N 35°49' E 014°40'0 0.5
2018-Jun-21 07:13N 35°49' E 014°40'0 0.8
2018-Jun-21 06:59N 35°49' E 014°40'1 2.4
2018-Jun-21 06:30N 35°49' E 014°42'6 7.4
2018-Jun-21 05:44N 35°50' E 014°49'1 2.0
2018-Jun-21 05:10N 35°50' E 014°50'  

Dump ship's entire track history